createdAt,value
2018-01-17T00:02:04.749Z,93823
2018-01-17T00:04:34.207Z,93804
2018-01-17T00:07:04.067Z,93809
2018-01-17T00:09:35.863Z,93801
2018-01-17T00:12:07.180Z,93810
2018-01-17T00:14:40.579Z,93804
2018-01-17T00:17:15.809Z,93807
2018-01-17T00:19:49.924Z,93803
2018-01-17T00:22:28.618Z,93801
2018-01-17T00:25:01.983Z,93803
2018-01-17T00:27:47.793Z,93808
2018-01-17T00:30:30.112Z,93803
2018-01-17T00:33:08.338Z,93802
2018-01-17T00:38:22.056Z,93808
2018-01-17T00:40:56.028Z,93811
2018-01-17T00:43:32.109Z,93812
2018-01-17T00:46:09.766Z,93811
2018-01-17T00:48:50.918Z,93798
2018-01-17T00:51:25.973Z,93799
2018-01-17T00:53:59.312Z,93776
2018-01-17T00:56:29.331Z,93783
2018-01-17T00:58:59.812Z,93778
2018-01-17T01:01:30.549Z,93778
2018-01-17T01:04:02.245Z,93780
2018-01-17T01:06:34.649Z,93809
2018-01-17T01:09:04.185Z,93760
2018-01-17T01:11:34.434Z,93772
2018-01-17T01:14:06.000Z,93782
2018-01-17T01:16:35.952Z,93775
2018-01-17T01:19:06.272Z,93778
2018-01-17T01:21:35.772Z,93769
2018-01-17T01:24:06.082Z,93771
2018-01-17T01:26:37.582Z,93768
2018-01-17T01:29:09.143Z,93764
2018-01-17T01:31:40.417Z,93772
2018-01-17T01:34:11.786Z,93775
2018-01-17T01:36:43.667Z,93749
2018-01-17T01:39:13.866Z,93762
2018-01-17T01:41:47.309Z,93759
2018-01-17T01:44:18.444Z,93760
2018-01-17T01:46:49.666Z,93753
2018-01-17T01:49:23.364Z,93763
2018-01-17T01:51:52.957Z,93748
2018-01-17T01:54:23.240Z,93737
2018-01-17T01:56:52.860Z,93745
2018-01-17T01:59:23.236Z,93737
2018-01-17T02:01:54.552Z,93748
2018-01-17T02:04:29.130Z,93745
2018-01-17T02:07:01.864Z,93749
2018-01-17T02:09:32.645Z,93755
2018-01-17T02:12:03.881Z,93756
2018-01-17T02:14:36.922Z,93745
2018-01-17T02:17:13.399Z,93749
2018-01-17T02:19:52.299Z,93744
2018-01-17T02:22:21.884Z,93743
2018-01-17T02:24:51.789Z,93756
2018-01-17T02:27:20.727Z,93752
2018-01-17T02:29:51.083Z,93752
2018-01-17T02:32:20.086Z,93751
2018-01-17T02:34:48.990Z,93757
2018-01-17T02:37:17.946Z,93750
2018-01-17T02:40:04.608Z,93757
2018-01-17T02:42:33.568Z,93750
2018-01-17T02:45:03.281Z,93749
2018-01-17T02:47:32.243Z,93744
2018-01-17T02:50:01.207Z,91699
2018-01-17T02:52:30.170Z,93733
2018-01-17T02:54:59.105Z,93735
2018-01-17T02:57:28.066Z,93741
2018-01-17T02:59:57.821Z,93733
2018-01-17T03:02:26.779Z,93746
2018-01-17T03:04:55.730Z,93750
2018-01-17T03:07:24.706Z,93740
2018-01-17T03:09:54.418Z,93742
2018-01-17T03:12:24.142Z,93737
2018-01-17T03:14:53.081Z,93741
2018-01-17T03:17:22.038Z,93727
2018-01-17T03:19:50.970Z,93740
2018-01-17T03:22:19.930Z,93746
2018-01-17T03:24:48.866Z,93753
2018-01-17T03:27:17.937Z,93742
2018-01-17T03:29:46.874Z,93729
2018-01-17T03:32:16.582Z,93742
2018-01-17T03:34:46.310Z,93649
2018-01-17T03:37:16.019Z,93728
2018-01-17T03:39:49.059Z,93729
2018-01-17T03:42:20.035Z,93722
2018-01-17T03:44:53.295Z,93730
2018-01-17T03:47:22.955Z,93726
2018-01-17T03:49:53.224Z,93731
2018-01-17T03:52:24.923Z,93740
2018-01-17T03:54:55.253Z,93729
2018-01-17T03:57:25.715Z,93731
2018-01-17T03:59:57.787Z,93717
2018-01-17T04:02:27.550Z,93714
2018-01-17T04:05:00.751Z,93703
2018-01-17T04:07:30.808Z,93710
2018-01-17T04:10:04.051Z,93709
2018-01-17T04:12:33.727Z,93704
2018-01-17T04:15:04.828Z,93700
2018-01-17T04:17:34.617Z,93699
2018-01-17T04:20:06.445Z,93705
2018-01-17T04:22:36.850Z,93705
2018-01-17T04:25:13.789Z,93703
2018-01-17T04:27:43.299Z,93710
2018-01-17T04:30:15.249Z,93699
2018-01-17T04:32:48.502Z,93711
2018-01-17T04:35:18.989Z,93714
2018-01-17T04:37:49.756Z,93714
2018-01-17T04:40:23.060Z,93730
2018-01-17T04:43:11.207Z,93720
2018-01-17T04:45:42.689Z,93723
2018-01-17T04:48:13.730Z,93728
2018-01-17T04:50:46.944Z,93712
2018-01-17T04:53:15.962Z,93721
2018-01-17T04:55:44.928Z,93736
2018-01-17T04:58:13.863Z,93728
2018-01-17T05:00:42.822Z,93739
2018-01-17T05:03:11.797Z,93749
2018-01-17T05:05:41.717Z,93750
2018-01-17T05:08:11.983Z,93750
2018-01-17T05:10:41.784Z,93754
2018-01-17T05:13:11.350Z,93751
2018-01-17T05:15:40.927Z,93774
2018-01-17T05:18:11.607Z,93788
2018-01-17T05:20:42.939Z,93798
2018-01-17T05:23:15.806Z,93816
2018-01-17T05:25:46.097Z,93830
2018-01-17T05:28:15.358Z,93832
2018-01-17T05:30:44.587Z,93842
2018-01-17T05:33:14.582Z,93865
2018-01-17T05:35:43.892Z,93856
2018-01-17T05:38:14.171Z,93862
2018-01-17T05:40:47.112Z,93867
2018-01-17T05:43:19.400Z,93865
2018-01-17T05:45:49.492Z,93874
2018-01-17T05:48:19.783Z,93879
2018-01-17T05:50:50.033Z,93892
2018-01-17T05:53:21.468Z,93890
2018-01-17T05:55:52.445Z,93888
2018-01-17T05:58:27.471Z,93881
2018-01-17T06:01:04.475Z,93891
2018-01-17T06:03:37.642Z,93891
2018-01-17T06:06:08.173Z,93912
2018-01-17T06:08:37.252Z,93896
2018-01-17T06:11:10.569Z,93902
2018-01-17T06:13:39.877Z,93909
2018-01-17T06:16:09.686Z,93914
2018-01-17T06:18:38.996Z,93896
2018-01-17T06:21:08.172Z,93919
2018-01-17T06:23:38.128Z,93915
2018-01-17T06:26:07.303Z,93922
2018-01-17T06:28:36.367Z,93901
2018-01-17T06:31:05.367Z,93919
2018-01-17T06:33:34.341Z,93935
2018-01-17T06:36:03.279Z,93940
2018-01-17T06:38:32.973Z,93954
2018-01-17T06:41:02.698Z,93951
2018-01-17T06:43:32.406Z,93957
2018-01-17T06:46:02.130Z,93956
2018-01-17T06:48:31.066Z,93967
2018-01-17T06:51:00.039Z,93959
2018-01-17T06:53:34.666Z,93973
2018-01-17T06:56:03.630Z,93984
2018-01-17T06:58:32.575Z,93972
2018-01-17T07:01:01.532Z,93989
2018-01-17T07:03:30.470Z,93994
2018-01-17T07:05:59.426Z,93996
2018-01-17T07:08:28.364Z,93992
2018-01-17T07:10:58.095Z,93987
2018-01-17T07:13:27.036Z,93994
2018-01-17T07:15:55.994Z,94009
2018-01-17T07:18:24.934Z,94013
2018-01-17T07:20:53.894Z,94015
2018-01-17T07:23:22.839Z,94035
2018-01-17T07:25:52.562Z,94042
2018-01-17T07:28:21.498Z,94033
2018-01-17T07:30:54.157Z,94054
2018-01-17T07:33:23.091Z,94058
2018-01-17T07:35:52.048Z,94038
2018-01-17T07:38:21.074Z,94057
2018-01-17T07:40:50.023Z,94060
2018-01-17T07:43:18.959Z,94059
2018-01-17T07:45:47.918Z,94073
2018-01-17T07:48:16.862Z,94067
2018-01-17T07:50:46.591Z,94074
2018-01-17T07:53:15.523Z,94084
2018-01-17T07:55:44.482Z,94074
2018-01-17T07:58:13.420Z,94075
2018-01-17T08:00:42.374Z,94069
2018-01-17T08:03:11.319Z,94089
2018-01-17T08:05:40.302Z,94115
2018-01-17T08:08:09.355Z,94125
2018-01-17T08:10:39.036Z,94133
2018-01-17T08:13:08.019Z,94138
2018-01-17T08:15:37.742Z,94129
2018-01-17T08:18:07.063Z,94152
2018-01-17T08:20:36.068Z,94166
2018-01-17T08:23:05.135Z,94169
2018-01-17T08:25:34.168Z,94190
2018-01-17T08:28:03.500Z,94198
2018-01-17T08:30:33.303Z,94194
2018-01-17T08:33:02.334Z,94186
2018-01-17T08:35:31.311Z,94166
2018-01-17T08:38:01.120Z,94170
2018-01-17T08:40:30.887Z,94176
2018-01-17T08:42:59.995Z,94158
2018-01-17T08:45:28.999Z,94170
2018-01-17T08:47:57.990Z,94172
2018-01-17T08:50:26.971Z,94177
2018-01-17T08:52:56.023Z,94208
2018-01-17T08:55:25.047Z,94207
2018-01-17T08:57:53.999Z,94212
2018-01-17T09:00:22.959Z,94226
2018-01-17T09:02:51.900Z,94238
2018-01-17T09:05:20.861Z,94237
2018-01-17T09:07:50.567Z,94240
2018-01-17T09:10:20.290Z,94241
2018-01-17T09:12:49.274Z,94249
2018-01-17T09:15:18.189Z,94249
2018-01-17T09:17:47.120Z,94260
2018-01-17T09:20:16.866Z,94266
2018-01-17T09:22:46.570Z,94266
2018-01-17T09:25:16.319Z,94281
2018-01-17T09:27:45.328Z,94286
2018-01-17T09:30:14.289Z,94281
2018-01-17T09:32:43.236Z,94296
2018-01-17T09:35:12.189Z,94307
2018-01-17T09:37:41.126Z,94311
2018-01-17T09:40:10.099Z,94305
2018-01-17T09:42:39.048Z,94320
2018-01-17T09:45:07.982Z,94315
2018-01-17T09:47:36.941Z,94325
2018-01-17T09:50:05.886Z,94333
2018-01-17T09:52:35.623Z,94339
2018-01-17T09:55:04.573Z,94325
2018-01-17T09:57:33.541Z,94341
2018-01-17T10:00:02.491Z,94353
2018-01-17T10:02:31.468Z,94355
2018-01-17T10:05:01.178Z,94364
2018-01-17T10:07:30.898Z,94366
2018-01-17T10:10:00.600Z,94380
2018-01-17T10:12:30.324Z,94382
2018-01-17T10:15:00.033Z,94398
2018-01-17T10:17:29.746Z,94389
2018-01-17T10:19:58.688Z,94399
2018-01-17T10:22:27.646Z,94393
2018-01-17T10:24:56.583Z,94407
2018-01-17T10:27:25.534Z,94394
2018-01-17T10:29:54.471Z,94395
2018-01-17T10:32:23.430Z,94405
2018-01-17T10:34:52.362Z,94412
2018-01-17T10:37:21.326Z,94414
2018-01-17T10:39:50.262Z,94440
2018-01-17T10:42:19.222Z,94434
2018-01-17T10:44:48.167Z,94434
2018-01-17T10:47:18.111Z,94436
2018-01-17T10:49:47.050Z,94428
2018-01-17T10:52:16.812Z,94425
2018-01-17T10:54:45.775Z,94426
2018-01-17T10:57:14.710Z,94438
2018-01-17T10:59:43.676Z,94438
2018-01-17T11:02:12.618Z,94425
2018-01-17T11:04:42.342Z,94445
2018-01-17T11:07:12.050Z,94442
2018-01-17T11:09:41.004Z,94450
2018-01-17T11:12:09.943Z,94460
2018-01-17T11:14:38.898Z,94458
2018-01-17T11:17:07.838Z,94455
2018-01-17T11:19:36.790Z,94459
2018-01-17T11:22:05.721Z,94481
2018-01-17T11:24:34.743Z,94469
2018-01-17T11:27:03.642Z,94481
2018-01-17T11:29:32.597Z,94478
2018-01-17T11:32:01.534Z,94493
2018-01-17T11:34:30.498Z,94506
2018-01-17T11:36:59.434Z,94504
2018-01-17T11:39:28.394Z,94517
2018-01-17T11:41:57.329Z,94518
2018-01-17T11:44:27.424Z,94528
2018-01-17T11:46:56.347Z,94528
2018-01-17T11:49:26.071Z,94526
2018-01-17T11:51:55.012Z,94532
2018-01-17T11:54:23.977Z,94554
2018-01-17T11:56:52.911Z,94537
2018-01-17T11:59:22.038Z,94545
2018-01-17T12:01:50.985Z,94535
2018-01-17T12:04:19.925Z,94545
2018-01-17T12:06:48.885Z,94551
2018-01-17T12:09:17.820Z,94566
2018-01-17T12:11:46.778Z,94572
2018-01-17T12:14:16.517Z,94570
2018-01-17T12:16:46.215Z,94569
2018-01-17T12:19:15.154Z,94564
2018-01-17T12:21:44.505Z,94562
2018-01-17T12:24:13.450Z,94567
2018-01-17T12:26:42.414Z,94601
2018-01-17T12:29:16.111Z,94585
2018-01-17T12:31:45.075Z,94566
2018-01-17T12:34:14.813Z,94582
2018-01-17T12:36:43.795Z,94581
2018-01-17T12:39:12.961Z,94571
2018-01-17T12:41:42.036Z,94572
2018-01-17T12:44:11.111Z,94581
2018-01-17T12:46:40.056Z,94583
2018-01-17T12:49:09.924Z,94574
2018-01-17T12:51:39.738Z,94599
2018-01-17T12:54:09.997Z,94599
2018-01-17T12:56:39.046Z,94595
2018-01-17T12:59:08.044Z,94616
2018-01-17T13:01:38.727Z,94624
2018-01-17T13:04:08.529Z,94613
2018-01-17T13:06:38.356Z,94646
2018-01-17T13:09:07.398Z,94647
2018-01-17T13:11:36.444Z,94641
2018-01-17T13:14:05.394Z,94628
2018-01-17T13:16:34.342Z,94637
2018-01-17T13:19:04.148Z,94643
2018-01-17T13:21:33.235Z,94659
2018-01-17T13:24:04.321Z,94647
2018-01-17T13:26:33.258Z,94650
2018-01-17T13:29:03.152Z,94658
2018-01-17T13:31:35.810Z,94673
2018-01-17T13:34:04.822Z,94673
2018-01-17T13:36:33.902Z,94675
2018-01-17T13:39:02.912Z,94685
2018-01-17T13:41:33.070Z,94678
2018-01-17T13:44:02.152Z,94678
2018-01-17T13:46:31.145Z,94679
2018-01-17T13:49:00.447Z,94707
2018-01-17T13:51:29.503Z,94691
2018-01-17T13:53:58.507Z,94696
2018-01-17T13:56:27.641Z,94703
2018-01-17T13:58:56.643Z,94722
2018-01-17T14:01:30.660Z,94695
2018-01-17T14:03:59.710Z,94700
2018-01-17T14:06:29.438Z,94716
2018-01-17T14:08:58.387Z,94700
2018-01-17T14:11:27.348Z,94704
2018-01-17T14:13:56.294Z,94708
2018-01-17T14:16:26.134Z,94710
2018-01-17T14:18:55.121Z,94720
2018-01-17T14:21:24.103Z,94724
2018-01-17T14:23:53.284Z,94724
2018-01-17T14:26:22.289Z,94729
2018-01-17T14:28:53.022Z,94732
2018-01-17T14:31:28.321Z,94728
2018-01-17T14:33:57.380Z,94777
2018-01-17T14:36:26.384Z,94729
2018-01-17T14:38:55.327Z,94731
2018-01-17T14:41:24.383Z,94731
2018-01-17T14:43:53.356Z,94736
2018-01-17T14:46:22.299Z,94750
2018-01-17T14:48:51.258Z,94738
2018-01-17T14:51:20.207Z,94750
2018-01-17T14:53:49.954Z,94745
2018-01-17T14:56:18.922Z,94747
2018-01-17T14:58:47.998Z,94812
2018-01-17T15:01:17.774Z,94768
2018-01-17T15:03:46.749Z,94768
2018-01-17T15:06:16.446Z,94773
2018-01-17T15:08:45.392Z,94764
2018-01-17T15:11:15.122Z,94783
2018-01-17T15:13:44.070Z,94777
2018-01-17T15:16:13.063Z,94781
2018-01-17T15:18:42.012Z,94794
2018-01-17T15:21:10.971Z,94783
2018-01-17T15:23:40.683Z,94779
2018-01-17T15:26:11.433Z,94783
2018-01-17T15:28:40.378Z,94792
2018-01-17T15:31:09.330Z,94784
2018-01-17T15:33:40.962Z,94792
2018-01-17T15:36:10.674Z,94789
2018-01-17T15:38:39.634Z,94805
2018-01-17T15:41:08.584Z,94811
2018-01-17T15:43:37.568Z,94805
2018-01-17T15:48:53.316Z,94822
2018-01-17T15:51:32.103Z,94829
2018-01-17T15:54:01.758Z,94831
2018-01-17T15:56:30.702Z,94825
2018-01-17T15:58:59.667Z,94826
2018-01-17T16:01:29.381Z,94820
2018-01-17T16:03:59.110Z,94822
2018-01-17T16:06:28.082Z,94823
2018-01-17T16:08:58.091Z,94827
2018-01-17T16:11:27.843Z,94838
2018-01-17T16:13:56.790Z,94831
2018-01-17T16:16:26.544Z,94857
2018-01-17T16:18:55.476Z,94868
2018-01-17T16:21:24.612Z,94890
2018-01-17T16:23:55.550Z,94882
2018-01-17T16:26:24.530Z,94870
2018-01-17T16:28:56.227Z,94863
2018-01-17T16:31:26.137Z,94865
2018-01-17T16:33:55.140Z,94869
2018-01-17T16:36:25.686Z,94866
2018-01-17T16:39:17.790Z,94679
2018-01-17T16:41:46.750Z,94894
2018-01-17T16:44:15.718Z,94901
2018-01-17T16:46:44.654Z,94893
2018-01-17T16:49:13.613Z,94893
2018-01-17T16:51:43.322Z,94904
2018-01-17T16:54:12.283Z,94900
2018-01-17T16:56:41.222Z,94896
2018-01-17T16:59:10.190Z,94894
2018-01-17T17:01:39.141Z,94894
2018-01-17T17:04:08.142Z,94895
2018-01-17T17:06:37.054Z,94893
2018-01-17T17:09:06.014Z,94907
2018-01-17T17:11:36.969Z,94900
2018-01-17T17:14:06.121Z,94912
2018-01-17T17:16:35.062Z,94924
2018-01-17T17:19:04.207Z,94941
2018-01-17T17:21:33.173Z,94919
2018-01-17T17:24:02.875Z,94937
2018-01-17T17:26:31.910Z,94494
2018-01-17T17:29:00.910Z,94937
2018-01-17T17:31:29.909Z,94947
2018-01-17T17:33:58.838Z,94940
2018-01-17T17:36:27.798Z,94939
2018-01-17T17:38:56.825Z,94933
2018-01-17T17:41:25.866Z,94974
2018-01-17T17:43:54.826Z,94938
2018-01-17T17:46:24.734Z,94949
2018-01-17T17:48:53.682Z,94947
2018-01-17T17:51:22.621Z,94953
2018-01-17T17:53:52.356Z,94952
2018-01-17T17:56:23.307Z,94975
2018-01-17T17:58:52.260Z,94959
2018-01-17T18:01:22.002Z,94948
2018-01-17T18:03:50.934Z,94929
2018-01-17T18:06:19.883Z,94947
2018-01-17T18:08:48.818Z,94957
2018-01-17T18:11:17.777Z,94954
2018-01-17T18:13:46.716Z,94957
2018-01-17T18:16:15.675Z,94991
2018-01-17T18:18:44.630Z,95008
2018-01-17T18:21:14.342Z,95023
2018-01-17T18:23:43.586Z,95026
2018-01-17T18:26:12.785Z,95022
2018-01-17T18:28:43.818Z,95036
2018-01-17T18:31:12.789Z,95027
2018-01-17T18:33:41.767Z,95022
2018-01-17T18:36:10.732Z,95023
2018-01-17T18:38:39.755Z,95044
2018-01-17T18:41:09.456Z,95039
2018-01-17T18:43:38.439Z,95059
2018-01-17T18:46:08.204Z,95051
2018-01-17T18:48:37.171Z,95052
2018-01-17T18:51:06.219Z,95065
2018-01-17T18:53:35.220Z,95069
2018-01-17T18:56:05.046Z,95064
2018-01-17T18:58:34.785Z,95062
2018-01-17T19:01:03.801Z,95067
2018-01-17T19:03:33.770Z,95068
2018-01-17T19:06:03.603Z,95056
2018-01-17T19:08:32.569Z,95068
2018-01-17T19:11:02.455Z,95071
2018-01-17T19:13:31.416Z,95077
2018-01-17T19:18:50.096Z,95093
2018-01-17T19:21:19.147Z,95103
2018-01-17T19:23:53.524Z,95113
2018-01-17T19:26:22.576Z,95100
2018-01-17T19:28:51.614Z,95100
2018-01-17T19:31:20.722Z,95092
2018-01-17T19:33:57.328Z,95123
2018-01-17T19:36:26.511Z,95109
2018-01-17T19:38:56.273Z,95107
2018-01-17T19:41:25.372Z,95115
2018-01-17T19:43:56.872Z,95111
2018-01-17T19:46:25.930Z,95125
2018-01-17T19:48:54.868Z,95121
2018-01-17T19:51:24.784Z,95123
2018-01-17T19:53:54.705Z,95135
2018-01-17T19:56:23.807Z,95109
2018-01-17T19:58:53.817Z,95121
2018-01-17T20:01:22.760Z,95138
2018-01-17T20:03:51.720Z,95135
2018-01-17T20:06:20.687Z,95141
2018-01-17T20:08:49.728Z,95149
2018-01-17T20:11:19.582Z,95204
2018-01-17T20:13:48.554Z,95163
2018-01-17T20:16:18.479Z,95165
2018-01-17T20:18:48.239Z,95155
2018-01-17T20:21:17.191Z,95166
2018-01-17T20:23:46.154Z,95179
2018-01-17T20:26:16.095Z,95163
2018-01-17T20:28:45.050Z,95161
2018-01-17T20:31:14.903Z,95164
2018-01-17T20:33:43.926Z,95154
2018-01-17T20:36:12.858Z,95156
2018-01-17T20:38:42.647Z,95174
2018-01-17T20:41:15.920Z,95173
2018-01-17T20:43:44.886Z,95180
2018-01-17T20:46:20.010Z,95178
2018-01-17T20:48:53.185Z,95181
2018-01-17T20:51:22.131Z,95166
2018-01-17T20:53:51.118Z,95164
2018-01-17T20:56:23.906Z,95161
2018-01-17T20:58:52.842Z,95159
2018-01-17T21:01:22.571Z,95166
2018-01-17T21:03:51.706Z,95173
2018-01-17T21:06:20.711Z,95165
2018-01-17T21:08:49.688Z,95174
2018-01-17T21:11:22.594Z,95166
2018-01-17T21:13:51.627Z,95167
2018-01-17T21:16:21.514Z,95175
2018-01-17T21:18:50.455Z,95174
2018-01-17T21:21:19.607Z,95171
2018-01-17T21:23:48.614Z,95165
2018-01-17T21:26:18.316Z,95176
2018-01-17T21:28:47.279Z,95173
2018-01-17T21:31:16.216Z,95183
2018-01-17T21:33:45.942Z,95185
2018-01-17T21:36:16.462Z,95196
2018-01-17T21:38:45.446Z,95198
2018-01-17T21:41:14.576Z,95205
2018-01-17T21:43:49.063Z,95212
2018-01-17T21:46:18.026Z,95215
2018-01-17T21:48:48.873Z,95207
2018-01-17T21:51:17.862Z,95204
2018-01-17T21:53:48.770Z,95204
2018-01-17T21:56:17.710Z,95197
2018-01-17T21:58:47.529Z,95203
2018-01-17T22:01:16.440Z,95197
2018-01-17T22:03:45.414Z,95193
2018-01-17T22:06:15.970Z,95193
2018-01-17T22:08:46.697Z,95193
2018-01-17T22:11:15.630Z,95194
2018-01-17T22:13:44.615Z,95196
2018-01-17T22:16:13.925Z,95193
2018-01-17T22:18:42.909Z,95182
2018-01-17T22:21:11.930Z,95194
2018-01-17T22:23:41.014Z,95186
2018-01-17T22:26:16.578Z,95189
2018-01-17T22:28:46.291Z,95185
2018-01-17T22:31:16.029Z,95197
2018-01-17T22:33:57.366Z,95194
2018-01-17T22:36:31.998Z,95192
2018-01-17T22:39:07.299Z,95193
2018-01-17T22:41:37.679Z,95197
2018-01-17T22:44:06.603Z,95189
2018-01-17T22:46:35.619Z,95190
2018-01-17T22:49:04.558Z,95197
2018-01-17T22:51:33.581Z,95202
2018-01-17T22:54:06.435Z,95210
2018-01-17T22:56:35.417Z,95223
2018-01-17T22:59:05.139Z,95221
2018-01-17T23:01:34.151Z,95225
2018-01-17T23:04:03.110Z,95224
2018-01-17T23:06:33.088Z,95234
2018-01-17T23:09:02.060Z,95240
2018-01-17T23:11:31.004Z,95237
2018-01-17T23:14:00.774Z,95240
2018-01-17T23:16:29.715Z,95226
2018-01-17T23:19:07.643Z,95237
2018-01-17T23:21:36.617Z,95234
2018-01-17T23:24:05.574Z,95243
2018-01-17T23:26:35.584Z,95239
2018-01-17T23:29:10.219Z,95223
2018-01-17T23:31:39.179Z,95221
2018-01-17T23:34:08.154Z,95214
2018-01-17T23:36:41.117Z,95228
2018-01-17T23:39:10.074Z,95224
2018-01-17T23:41:39.034Z,95225
2018-01-17T23:44:07.978Z,95235
2018-01-17T23:46:37.690Z,95224
2018-01-17T23:49:07.445Z,95225
2018-01-17T23:51:40.606Z,95229
2018-01-17T23:54:09.577Z,95222
2018-01-17T23:56:39.283Z,95220
2018-01-17T23:59:09.011Z,95204
